Time;durP1;ratioP1;P1;durP2;ratioP2;P2;SDS_P1;SDS_P2;PMS_P1;PMS_P2;Temp;Humidity;BMP_temperature;BMP_pressure;BME280_temperature;BME280_humidity;BME280_pressure;Samples;Min_cycle;Max_cycle;Signal;HPM_P1;HPM_P2
2022/08/22 00:02:39;;;;;;;3.05;1.75;;;15.50;99.90;;;;;;5045375;28;20037;-79
2022/08/22 00:05:16;;;;;;;2.65;1.52;;;15.60;99.90;;;;;;5042022;28;20064;-79
2022/08/22 00:07:46;;;;;;;2.08;1.58;;;15.60;99.90;;;;;;5068753;28;20045;-79
2022/08/22 00:10:22;;;;;;;4.45;1.70;;;15.50;99.90;;;;;;5041018;28;20044;-80
2022/08/22 00:13:02;;;;;;;3.70;1.83;;;15.50;99.90;;;;;;5042463;28;20060;-79
2022/08/22 00:15:35;;;;;;;2.92;1.55;;;15.50;99.90;;;;;;5040534;28;20442;-79
2022/08/22 00:18:10;;;;;;;2.53;1.50;;;15.40;99.90;;;;;;5048931;28;20033;-78
2022/08/22 00:20:43;;;;;;;2.30;1.50;;;15.40;99.90;;;;;;5040033;28;20081;-78
2022/08/22 00:23:11;;;;;;;3.33;1.67;;;15.40;99.90;;;;;;5047674;28;20044;-78
2022/08/22 00:25:45;;;;;;;3.53;1.90;;;15.30;99.90;;;;;;5044331;28;20098;-78
2022/08/22 00:28:27;;;;;;;3.20;1.55;;;15.30;99.90;;;;;;5046525;28;20047;-79
2022/08/22 00:31:23;;;;;;;4.38;1.67;;;15.30;99.90;;;;;;5020677;28;20052;-80
2022/08/22 00:33:52;;;;;;;4.55;1.73;;;15.30;99.90;;;;;;5047711;28;20060;-80
2022/08/22 00:36:33;;;;;;;5.47;1.63;;;15.30;99.90;;;;;;5045195;28;20435;-80
2022/08/22 00:39:12;;;;;;;3.38;1.52;;;15.20;99.90;;;;;;5032489;28;20052;-80
2022/08/22 00:42:06;;;;;;;2.40;1.23;;;15.20;99.90;;;;;;5042153;28;20053;-80
2022/08/22 00:44:54;;;;;;;4.20;1.38;;;15.20;99.90;;;;;;5047629;28;20052;-80
2022/08/22 00:47:22;;;;;;;4.28;1.80;;;15.20;99.90;;;;;;5047239;28;20072;-79
2022/08/22 00:50:16;;;;;;;5.03;2.00;;;15.10;99.90;;;;;;5044168;28;20037;-78
2022/08/22 00:52:53;;;;;;;4.63;2.58;;;15.10;99.90;;;;;;5040721;28;20037;-79
2022/08/22 00:55:41;;;;;;;3.15;1.65;;;15.10;99.90;;;;;;5041942;28;20081;-79
2022/08/22 00:58:09;;;;;;;4.43;1.92;;;15.10;99.90;;;;;;5045190;28;20045;-78
2022/08/22 01:00:43;;;;;;;4.82;1.90;;;15.10;99.90;;;;;;5028814;28;20049;-78
2022/08/22 01:03:27;;;;;;;4.22;1.95;;;15.00;99.90;;;;;;5042916;28;20045;-78
2022/08/22 01:06:31;;;;;;;2.83;1.85;;;15.00;99.90;;;;;;5041386;28;20038;-81
2022/08/22 01:09:21;;;;;;;5.45;1.90;;;15.00;99.90;;;;;;5051156;28;20041;-81
2022/08/22 01:12:18;;;;;;;5.03;2.13;;;15.00;99.90;;;;;;5024700;28;20067;-81
2022/08/22 01:14:51;;;;;;;3.58;1.85;;;14.90;99.90;;;;;;5040173;28;20037;-81
2022/08/22 01:17:54;;;;;;;3.40;1.80;;;14.90;99.90;;;;;;5042767;28;20480;-81
2022/08/22 01:20:47;;;;;;;3.17;1.70;;;14.80;99.90;;;;;;5043399;28;20394;-78
2022/08/22 01:23:25;;;;;;;2.40;1.48;;;14.80;99.90;;;;;;5045474;28;20095;-78
2022/08/22 01:26:21;;;;;;;3.67;1.33;;;14.70;99.90;;;;;;5047324;28;20055;-78
2022/08/22 01:29:19;;;;;;;3.03;1.70;;;14.70;99.90;;;;;;5051320;28;20032;-78
2022/08/22 01:32:26;;;;;;;7.43;2.10;;;14.60;99.90;;;;;;5042637;28;20090;-78
2022/08/22 01:35:20;;;;;;;2.88;1.75;;;14.60;99.90;;;;;;5043815;28;20085;-78
2022/08/22 01:37:54;;;;;;;3.63;1.65;;;14.60;99.90;;;;;;5044153;28;20068;-78
2022/08/22 01:40:31;;;;;;;3.88;1.70;;;14.60;99.90;;;;;;5048048;28;20557;-78
2022/08/22 01:43:27;;;;;;;4.05;1.55;;;14.50;99.90;;;;;;5048158;28;20044;-78
2022/08/22 01:46:35;;;;;;;3.42;2.00;;;14.40;99.90;;;;;;5031182;28;20044;-78
2022/08/22 01:49:26;;;;;;;5.07;2.08;;;14.30;99.90;;;;;;5047304;28;20117;-78
2022/08/22 01:51:52;;;;;;;3.30;1.60;;;14.30;99.90;;;;;;5047418;28;20103;-78
2022/08/22 01:54:30;;;;;;;3.47;2.00;;;14.20;99.90;;;;;;5032119;28;20495;-80
2022/08/22 01:57:06;;;;;;;3.92;2.25;;;14.20;99.90;;;;;;5044883;28;20039;-80
2022/08/22 01:59:39;;;;;;;2.50;1.60;;;14.20;99.90;;;;;;5044320;28;20049;-80
2022/08/22 02:02:26;;;;;;;2.75;1.60;;;14.10;99.90;;;;;;5046767;28;20056;-80
2022/08/22 02:05:08;;;;;;;4.20;1.70;;;14.10;99.90;;;;;;5049338;28;20048;-81
2022/08/22 02:07:55;;;;;;;3.72;2.00;;;14.00;99.90;;;;;;5046507;28;20120;-81
2022/08/22 02:10:47;;;;;;;3.28;1.80;;;14.00;99.90;;;;;;5051693;28;20048;-81
2022/08/22 02:13:51;;;;;;;2.95;1.60;;;14.00;99.90;;;;;;5026082;28;20053;-80
2022/08/22 02:16:37;;;;;;;2.45;1.60;;;13.90;99.90;;;;;;5050657;28;20066;-80
2022/08/22 02:19:15;;;;;;;3.65;1.98;;;13.90;99.90;;;;;;5044886;28;20053;-80
2022/08/22 02:21:46;;;;;;;2.28;1.40;;;13.80;99.90;;;;;;5045865;28;20442;-80
2022/08/22 02:24:31;;;;;;;2.92;1.38;;;13.80;99.90;;;;;;5044415;28;20094;-80
2022/08/22 02:27:29;;;;;;;3.35;1.67;;;13.80;99.90;;;;;;5032645;28;20470;-79
2022/08/22 02:30:05;;;;;;;3.50;1.95;;;13.70;99.90;;;;;;5043349;28;20041;-79
2022/08/22 02:32:51;;;;;;;2.65;1.73;;;13.70;99.90;;;;;;5040144;28;20093;-79
2022/08/22 02:35:32;;;;;;;3.15;2.05;;;13.60;99.90;;;;;;5048482;28;20059;-79
2022/08/22 02:38:07;;;;;;;4.18;1.80;;;13.60;99.90;;;;;;5051499;28;20132;-80
2022/08/22 02:41:08;;;;;;;3.22;1.70;;;13.60;99.90;;;;;;5062939;28;20062;-79
2022/08/22 02:43:36;;;;;;;3.97;2.00;;;13.50;99.90;;;;;;5047079;28;20045;-79
2022/08/22 02:46:21;;;;;;;2.83;1.83;;;13.50;99.90;;;;;;5047638;28;20402;-79
2022/08/22 02:49:01;;;;;;;3.35;1.90;;;13.40;99.90;;;;;;5048840;28;20045;-80
2022/08/22 02:52:05;;;;;;;2.55;1.70;;;13.40;99.90;;;;;;5048065;28;20395;-79
2022/08/22 02:55:02;;;;;;;3.88;1.88;;;13.30;99.90;;;;;;5035065;28;20049;-80
2022/08/22 02:57:44;;;;;;;3.05;1.70;;;13.30;99.90;;;;;;5046403;28;20087;-79
2022/08/22 03:00:22;;;;;;;4.07;2.25;;;13.30;99.90;;;;;;5047578;28;20040;-80
2022/08/22 03:03:03;;;;;;;4.45;2.00;;;13.30;99.90;;;;;;5044013;28;20526;-80
2022/08/22 03:05:37;;;;;;;4.03;2.20;;;13.20;99.90;;;;;;5028372;28;20076;-80
2022/08/22 03:08:23;;;;;;;2.65;1.73;;;13.30;99.90;;;;;;5051912;28;20052;-80
2022/08/22 03:11:01;;;;;;;4.22;1.77;;;13.30;99.90;;;;;;5037805;28;20046;-80
2022/08/22 03:13:52;;;;;;;3.50;1.40;;;13.30;99.90;;;;;;5046976;28;20395;-80
2022/08/22 03:16:29;;;;;;;3.85;1.85;;;13.20;99.90;;;;;;5042520;28;20041;-80
2022/08/22 03:19:07;;;;;;;3.45;1.95;;;13.20;99.90;;;;;;5045663;28;20042;-80
2022/08/22 03:21:46;;;;;;;3.55;1.95;;;13.20;99.90;;;;;;5026905;28;20368;-80
2022/08/22 03:24:38;;;;;;;2.70;1.63;;;13.20;99.90;;;;;;5026846;28;20420;-81
2022/08/22 03:27:22;;;;;;;3.03;1.55;;;13.20;99.90;;;;;;5046393;28;20495;-80
2022/08/22 03:30:05;;;;;;;3.70;1.65;;;13.10;99.90;;;;;;5030459;28;20044;-80
2022/08/22 03:32:51;;;;;;;3.00;1.60;;;13.10;99.90;;;;;;5044074;28;20463;-80
2022/08/22 03:35:49;;;;;;;3.00;1.65;;;13.10;99.90;;;;;;5042874;28;20053;-80
2022/08/22 03:38:28;;;;;;;2.85;1.70;;;13.00;99.90;;;;;;5042921;28;20037;-81
2022/08/22 03:41:24;;;;;;;1.98;1.60;;;13.00;99.90;;;;;;5039948;28;20053;-81
2022/08/22 03:44:29;;;;;;;3.55;1.88;;;13.00;99.90;;;;;;5049482;28;20437;-81
2022/08/22 03:47:29;;;;;;;2.55;1.60;;;13.00;99.90;;;;;;5040429;28;20046;-81
2022/08/22 03:49:57;;;;;;;3.05;2.03;;;12.90;99.90;;;;;;5044473;28;20037;-81
2022/08/22 03:53:08;;;;;;;2.65;1.58;;;12.90;99.90;;;;;;5046025;28;20037;-80
2022/08/22 03:56:07;;;;;;;2.22;1.45;;;12.90;99.90;;;;;;5043409;28;20494;-80
2022/08/22 03:59:05;;;;;;;3.58;1.88;;;12.80;99.90;;;;;;5032970;28;20037;-80
2022/08/22 04:01:47;;;;;;;3.47;1.88;;;12.80;99.90;;;;;;5042128;28;20043;-80
2022/08/22 04:04:49;;;;;;;4.80;2.17;;;12.80;99.90;;;;;;5042341;28;20102;-80
2022/08/22 04:07:40;;;;;;;2.60;1.85;;;12.80;99.90;;;;;;5030586;28;20064;-78
2022/08/22 04:10:14;;;;;;;3.05;1.58;;;12.70;99.90;;;;;;5047399;28;20039;-78
2022/08/22 04:13:12;;;;;;;2.22;1.63;;;12.70;99.90;;;;;;5046085;28;20037;-79
2022/08/22 04:16:02;;;;;;;3.22;1.77;;;12.70;99.90;;;;;;5042526;28;20045;-79
2022/08/22 04:19:04;;;;;;;2.83;1.55;;;12.70;99.90;;;;;;5042595;28;20045;-79
2022/08/22 04:21:34;;;;;;;1.67;1.13;;;12.60;99.90;;;;;;5042661;28;20049;-79
2022/08/22 04:24:16;;;;;;;3.47;1.80;;;12.60;99.90;;;;;;5042921;28;20367;-80
2022/08/22 04:26:49;;;;;;;3.58;1.60;;;12.60;99.90;;;;;;5061900;28;20120;-80
2022/08/22 04:29:20;;;;;;;3.35;1.55;;;12.60;99.90;;;;;;5045508;28;20041;-80
2022/08/22 04:32:19;;;;;;;2.78;1.92;;;12.50;99.90;;;;;;5046265;28;20036;-80
2022/08/22 04:35:07;;;;;;;3.20;1.30;;;12.50;99.90;;;;;;5037659;28;20064;-80
2022/08/22 04:37:36;;;;;;;2.80;1.50;;;12.50;99.90;;;;;;5045248;28;20067;-80
2022/08/22 04:40:22;;;;;;;2.55;1.70;;;12.50;99.90;;;;;;5031380;28;20048;-80
2022/08/22 04:43:01;;;;;;;2.65;1.10;;;12.50;99.90;;;;;;5043797;28;20115;-80
2022/08/22 04:45:35;;;;;;;3.17;1.60;;;12.50;99.90;;;;;;5042807;28;20033;-80
2022/08/22 04:48:40;;;;;;;2.80;1.70;;;12.50;99.90;;;;;;5042067;28;20045;-80
2022/08/22 04:51:21;;;;;;;2.55;1.40;;;12.50;99.90;;;;;;5031812;28;20045;-80
2022/08/22 04:53:47;;;;;;;2.00;1.35;;;12.50;99.90;;;;;;5022157;28;20041;-80
2022/08/22 04:56:39;;;;;;;2.42;1.48;;;12.50;99.90;;;;;;5023834;28;20120;-80
2022/08/22 04:59:15;;;;;;;2.97;1.65;;;12.50;99.90;;;;;;5013881;28;20490;-80
2022/08/22 05:01:45;;;;;;;;;;;12.60;99.90;;;;;;5049673;28;20394;-80
2022/08/22 05:04:19;;;;;;;3.28;1.60;;;12.60;99.90;;;;;;5028007;28;19967;-80
2022/08/22 05:06:52;;;;;;;2.22;1.58;;;12.70;99.90;;;;;;5044421;28;20053;-80
2022/08/22 05:09:25;;;;;;;2.67;1.40;;;12.70;99.90;;;;;;5041950;28;20554;-80
2022/08/22 05:11:56;;;;;;;2.35;1.52;;;12.90;99.90;;;;;;5044619;28;20033;-79
2022/08/22 05:14:39;;;;;;;3.17;1.50;;;12.90;99.90;;;;;;5041614;28;20124;-79
2022/08/22 05:17:09;;;;;;;3.10;1.55;;;13.00;99.90;;;;;;5041473;28;20045;-79
2022/08/22 05:19:39;;;;;;;2.50;1.50;;;13.10;99.90;;;;;;5025001;28;20107;-79
2022/08/22 05:22:12;;;;;;;3.60;1.70;;;13.10;99.90;;;;;;5044536;28;20098;-79
2022/08/22 05:24:42;;;;;;;3.47;1.60;;;13.30;99.90;;;;;;5044271;28;20041;-79
2022/08/22 05:27:21;;;;;;;4.35;1.90;;;13.40;99.90;;;;;;5045778;28;20049;-79
2022/08/22 05:29:50;;;;;;;2.97;1.80;;;13.50;99.90;;;;;;5044119;28;20476;-79
2022/08/22 05:32:29;;;;;;;2.45;1.67;;;13.70;99.90;;;;;;5042853;28;20108;-79
2022/08/22 05:35:00;;;;;;;4.60;2.22;;;13.80;99.90;;;;;;5041145;28;20045;-79
2022/08/22 05:37:49;;;;;;;7.55;2.78;;;13.90;99.90;;;;;;5040312;28;20058;-79
2022/08/22 05:40:26;;;;;;;5.72;2.45;;;14.00;99.90;;;;;;5025010;28;20056;-79
2022/08/22 05:42:54;;;;;;;3.42;1.80;;;14.20;99.90;;;;;;5054766;28;20041;-79
2022/08/22 05:45:20;;;;;;;4.75;2.40;;;14.30;99.90;;;;;;5040658;28;20083;-79
2022/08/22 05:48:06;;;;;;;3.00;1.73;;;14.40;99.90;;;;;;5024701;28;20046;-79
2022/08/22 05:50:40;;;;;;;6.07;2.10;;;14.70;99.90;;;;;;5056866;22;20072;-79
2022/08/22 05:53:42;;;;;;;6.88;1.67;;;14.90;99.90;;;;;;5043161;28;20057;-79
2022/08/22 05:56:36;;;;;;;4.05;1.80;;;15.10;99.90;;;;;;5041182;28;20064;-79
2022/08/22 05:59:27;;;;;;;6.18;2.00;;;15.30;99.90;;;;;;5041387;28;20056;-79
2022/08/22 06:02:04;;;;;;;4.32;2.00;;;15.50;99.90;;;;;;5044389;28;20116;-79
2022/08/22 06:04:41;;;;;;;5.60;2.17;;;15.70;99.90;;;;;;5041306;28;20049;-79
2022/08/22 06:07:15;;;;;;;4.45;2.50;;;15.90;99.90;;;;;;5026248;28;20052;-79
2022/08/22 06:09:46;;;;;;;3.70;2.17;;;16.10;99.90;;;;;;5047127;28;20037;-79
2022/08/22 06:12:45;;;;;;;7.13;2.50;;;16.30;99.90;;;;;;5044142;28;20045;-79
2022/08/22 06:15:37;;;;;;;6.53;2.55;;;16.40;99.90;;;;;;5036434;28;20056;-79
2022/08/22 06:18:09;;;;;;;8.70;2.80;;;16.50;99.90;;;;;;5049507;28;20037;-79
2022/08/22 06:20:54;;;;;;;5.00;2.40;;;16.60;99.90;;;;;;5054157;28;20044;-81
2022/08/22 06:23:42;;;;;;;6.13;2.57;;;16.70;99.90;;;;;;5034431;28;20049;-81
2022/08/22 06:26:10;;;;;;;5.35;2.50;;;16.80;99.90;;;;;;5063879;28;20048;-81
2022/08/22 06:28:45;;;;;;;6.68;2.53;;;16.90;99.90;;;;;;5050113;28;20041;-81
2022/08/22 06:31:25;;;;;;;3.33;2.10;;;16.90;99.90;;;;;;5052026;28;20033;-81
2022/08/22 06:34:16;;;;;;;4.15;2.30;;;17.00;99.90;;;;;;5051559;28;20388;-82
2022/08/22 06:36:48;;;;;;;5.90;2.60;;;17.00;99.90;;;;;;5027916;28;20064;-81
2022/08/22 06:39:33;;;;;;;6.45;2.40;;;17.10;99.90;;;;;;5050679;28;20091;-80
2022/08/22 06:42:10;;;;;;;5.88;2.10;;;17.10;99.90;;;;;;5045006;28;20051;-80
2022/08/22 06:44:48;;;;;;;8.90;2.33;;;17.20;99.90;;;;;;5051812;28;20041;-80
2022/08/22 06:47:19;;;;;;;6.45;2.50;;;17.30;99.90;;;;;;5052462;28;20490;-80
2022/08/22 06:49:45;;;;;;;4.57;2.25;;;17.30;99.90;;;;;;5037945;28;20399;-80
2022/08/22 06:52:17;;;;;;;4.57;2.20;;;17.40;99.90;;;;;;5037543;28;20049;-80
2022/08/22 06:54:46;;;;;;;2.90;1.45;;;17.50;99.90;;;;;;5051867;28;20498;-80
2022/08/22 06:57:49;;;;;;;6.05;2.42;;;17.60;99.90;;;;;;5066687;28;20479;-80
2022/08/22 07:00:16;;;;;;;5.40;2.47;;;17.60;99.90;;;;;;4995063;28;20609;-80
2022/08/22 07:02:45;;;;;;;7.97;2.58;;;17.70;99.90;;;;;;5027711;28;20056;-80
2022/08/22 07:05:18;;;;;;;4.13;2.03;;;17.80;99.90;;;;;;5043498;28;20041;-80
2022/08/22 07:07:44;;;;;;;5.55;2.45;;;17.90;99.90;;;;;;5048051;28;20048;-80
2022/08/22 07:10:13;;;;;;;9.93;2.53;;;18.00;99.90;;;;;;5048026;28;20049;-81
2022/08/22 07:12:44;;;;;;;5.88;2.53;;;18.00;99.90;;;;;;5032953;28;20037;-81
2022/08/22 07:15:21;;;;;;;6.68;2.85;;;18.10;99.90;;;;;;5052826;28;20120;-81
2022/08/22 07:17:53;;;;;;;6.78;3.08;;;18.30;99.90;;;;;;5050168;28;20048;-80
2022/08/22 07:20:26;;;;;;;6.57;2.42;;;18.40;99.90;;;;;;5041408;28;20048;-81
2022/08/22 07:23:04;;;;;;;6.13;2.65;;;18.60;99.90;;;;;;5029188;28;20037;-81
2022/08/22 07:25:33;;;;;;;5.70;2.45;;;17.90;99.90;;;;;;5047767;28;20068;-81
2022/08/22 07:28:22;;;;;;;5.82;2.45;;;19.00;99.90;;;;;;5046083;28;20037;-79
2022/08/22 07:30:56;;;;;;;6.68;2.40;;;19.20;99.90;;;;;;5028160;28;20037;-79
2022/08/22 07:33:50;;;;;;;5.75;2.40;;;19.70;99.90;;;;;;5061629;28;20045;-79
2022/08/22 07:36:38;;;;;;;5.65;2.58;;;20.00;99.90;;;;;;5027708;28;20042;-79
2022/08/22 07:39:13;;;;;;;7.32;2.60;;;20.20;99.90;;;;;;5050382;28;20041;-79
2022/08/22 07:41:51;;;;;;;3.22;1.90;;;20.40;99.90;;;;;;5050189;28;20100;-79
2022/08/22 07:44:22;;;;;;;5.40;2.25;;;20.50;99.90;;;;;;5049493;28;20402;-81
2022/08/22 07:47:06;;;;;;;7.93;2.33;;;20.50;99.90;;;;;;5049177;28;20051;-81
2022/08/22 07:49:40;;;;;;;3.75;2.10;;;20.60;99.90;;;;;;5050744;28;20516;-81
2022/08/22 07:52:10;;;;;;;2.90;1.70;;;20.70;99.90;;;;;;5050213;28;20045;-81
2022/08/22 07:55:02;;;;;;;5.15;2.63;;;20.90;99.90;;;;;;5050271;28;20055;-81
2022/08/22 07:57:36;;;;;;;3.58;2.20;;;21.90;99.90;;;;;;5065279;28;20510;-82
2022/08/22 08:00:10;;;;;;;4.55;1.85;;;22.60;99.90;;;;;;5037026;28;20079;-81
2022/08/22 08:02:39;;;;;;;9.02;3.45;;;22.80;99.90;;;;;;5052701;28;20178;-80
2022/08/22 08:05:05;;;;;;;5.47;2.25;;;22.80;99.90;;;;;;5052018;28;20116;-80
2022/08/22 08:07:31;;;;;;;6.88;2.40;;;22.90;99.90;;;;;;5049644;28;20037;-80
2022/08/22 08:10:09;;;;;;;4.30;2.30;;;22.70;99.90;;;;;;5036753;28;20107;-80
2022/08/22 08:12:38;;;;;;;4.75;2.38;;;22.80;99.90;;;;;;5053300;28;20132;-80
2022/08/22 08:15:08;;;;;;;2.95;1.95;;;23.80;99.90;;;;;;5043337;28;20056;-80
2022/08/22 08:17:36;;;;;;;7.05;2.58;;;25.40;99.90;;;;;;5051815;28;20040;-81
2022/08/22 08:20:07;;;;;;;5.90;2.80;;;26.90;99.90;;;;;;5036022;28;20372;-81
2022/08/22 08:22:33;;;;;;;5.43;2.00;;;27.50;96.80;;;;;;5053086;28;20045;-81
2022/08/22 08:25:01;;;;;;;4.75;1.90;;;28.60;96.10;;;;;;5017633;28;20037;-82
2022/08/22 08:30:15;;;;;;;3.90;1.83;;;30.00;93.00;;;;;;5052107;28;20471;-81
2022/08/22 08:32:46;;;;;;;4.13;1.92;;;30.70;93.30;;;;;;5051970;28;20037;-81
2022/08/22 08:35:22;;;;;;;10.23;1.65;;;31.00;90.70;;;;;;5035231;28;20041;-82
2022/08/22 08:37:55;;;;;;;3.55;1.63;;;31.50;89.50;;;;;;5052289;28;20040;-82
2022/08/22 08:40:29;;;;;;;5.72;1.77;;;32.50;90.10;;;;;;5052804;28;20053;-82
2022/08/22 08:46:01;;;;;;;6.20;1.80;;;32.80;83.70;;;;;;5052495;28;20040;-82
2022/08/22 08:48:37;;;;;;;4.05;1.35;;;32.80;83.70;;;;;;5036049;28;20450;-82
2022/08/22 08:51:27;;;;;;;4.30;1.40;;;32.20;83.00;;;;;;5052862;28;20487;-82
2022/08/22 08:54:02;;;;;;;3.05;1.90;;;31.50;83.40;;;;;;5052521;28;20052;-82
2022/08/22 08:56:47;;;;;;;3.97;2.08;;;31.20;83.50;;;;;;5039052;28;20411;-82
2022/08/22 08:59:51;;;;;;;6.32;1.90;;;30.70;84.50;;;;;;5035861;28;20080;-82
2022/08/22 09:02:41;;;;;;;2.88;1.75;;;30.90;83.90;;;;;;5035090;28;20119;-82
2022/08/22 09:05:25;;;;;;;3.92;1.13;;;31.30;84.00;;;;;;5016098;28;20047;-82
2022/08/22 09:08:12;;;;;;;4.75;1.40;;;31.20;83.00;;;;;;5047539;28;20080;-81
2022/08/22 09:11:19;;;;;;;6.63;2.03;;;31.10;82.90;;;;;;5052834;28;20355;-81
2022/08/22 09:13:57;;;;;;;4.88;1.40;;;31.20;83.60;;;;;;5037438;28;20521;-81
2022/08/22 09:16:35;;;;;;;3.85;1.20;;;30.90;81.40;;;;;;5035450;28;20376;-81
2022/08/22 09:19:23;;;;;;;4.63;1.50;;;31.10;80.40;;;;;;5032770;28;20052;-81
2022/08/22 09:22:26;;;;;;;3.38;1.27;;;30.70;81.40;;;;;;5016085;28;20047;-81
2022/08/22 09:25:32;;;;;;;3.28;1.35;;;29.90;83.00;;;;;;5048060;28;20048;-82
2022/08/22 09:28:14;;;;;;;6.07;1.52;;;30.30;85.20;;;;;;5035626;28;20045;-82
2022/08/22 09:31:01;;;;;;;1.60;1.00;;;31.50;80.50;;;;;;5033392;28;20029;-82
2022/08/22 09:33:57;;;;;;;3.95;1.27;;;32.50;78.90;;;;;;5043024;28;20045;-82
2022/08/22 09:36:31;;;;;;;1.52;0.88;;;33.10;77.30;;;;;;5045551;28;20517;-82
2022/08/22 09:39:11;;;;;;;3.40;1.48;;;33.50;76.70;;;;;;5053006;28;20455;-82
2022/08/22 09:41:56;;;;;;;2.20;0.95;;;33.70;76.30;;;;;;5053156;28;20052;-82
2022/08/22 09:45:04;;;;;;;3.58;1.50;;;33.40;73.70;;;;;;5039405;28;20041;-82
2022/08/22 09:47:41;;;;;;;1.98;1.00;;;34.10;74.40;;;;;;5004420;28;20752;-82
2022/08/22 09:50:29;;;;;;;4.13;1.15;;;34.10;73.60;;;;;;5055831;28;20049;-80
2022/08/22 09:53:20;;;;;;;4.18;1.50;;;33.80;72.80;;;;;;5029854;28;20042;-80
2022/08/22 09:56:05;;;;;;;4.30;1.23;;;33.30;73.30;;;;;;5019634;28;20045;-80
2022/08/22 09:59:02;;;;;;;2.63;1.37;;;33.60;72.80;;;;;;5036382;28;20048;-82
2022/08/22 10:01:37;;;;;;;2.50;1.33;;;33.70;73.10;;;;;;5025316;28;20053;-82
2022/08/22 10:04:09;;;;;;;3.20;1.33;;;33.80;72.80;;;;;;5051489;28;20122;-83
2022/08/22 10:06:44;;;;;;;2.85;1.23;;;33.50;73.60;;;;;;5055749;28;20041;-82
2022/08/22 10:09:22;;;;;;;3.85;1.40;;;33.90;73.30;;;;;;5056255;28;20041;-81
2022/08/22 10:12:02;;;;;;;3.92;1.20;;;34.40;73.00;;;;;;5055958;28;20041;-81
2022/08/22 10:14:36;;;;;;;4.25;1.35;;;34.20;74.10;;;;;;5055216;28;20048;-80
2022/08/22 10:17:19;;;;;;;3.00;1.27;;;34.30;73.10;;;;;;5035882;28;20122;-81
2022/08/22 10:19:51;;;;;;;2.33;1.10;;;34.90;70.50;;;;;;5055672;28;20292;-81
2022/08/22 10:22:44;;;;;;;3.67;1.23;;;35.10;71.70;;;;;;5055740;28;20049;-81
2022/08/22 10:25:23;;;;;;;2.10;1.40;;;35.00;71.40;;;;;;5052524;28;20040;-81
2022/08/22 10:28:13;;;;;;;2.45;1.30;;;34.90;68.80;;;;;;5050693;28;20053;-80
2022/08/22 10:30:49;;;;;;;3.65;1.27;;;34.80;69.30;;;;;;5055594;28;20041;-81
2022/08/22 10:33:33;;;;;;;2.70;1.30;;;34.70;69.50;;;;;;5039203;28;20105;-81
2022/08/22 10:36:25;;;;;;;3.83;1.50;;;34.90;70.00;;;;;;5037093;28;20072;-81
2022/08/22 10:38:57;;;;;;;3.50;1.13;;;34.30;69.10;;;;;;5054433;28;20041;-81
2022/08/22 10:41:24;;;;;;;2.90;1.42;;;34.60;71.00;;;;;;5055424;28;20044;-81
2022/08/22 10:44:14;;;;;;;1.85;1.15;;;35.00;71.00;;;;;;5055378;28;20036;-81
2022/08/22 10:46:54;;;;;;;4.18;1.30;;;34.90;68.40;;;;;;5037784;28;20052;-81
2022/08/22 10:49:20;;;;;;;3.25;1.42;;;35.00;70.10;;;;;;5050473;28;20049;-80
2022/08/22 10:52:11;;;;;;;3.58;1.33;;;34.60;68.90;;;;;;5055256;28;20474;-81
2022/08/22 10:54:53;;;;;;;4.63;1.33;;;34.80;68.00;;;;;;5018910;28;20165;-81
2022/08/22 10:57:48;;;;;;;3.13;1.15;;;34.80;69.00;;;;;;5054706;28;20375;-81
2022/08/22 11:00:42;;;;;;;2.25;1.23;;;34.60;68.10;;;;;;5054688;28;20047;-81
2022/08/22 11:03:37;;;;;;;4.15;1.38;;;35.30;67.00;;;;;;5048008;28;20081;-81
2022/08/22 11:06:12;;;;;;;6.10;1.47;;;35.30;67.10;;;;;;5023310;28;20155;-78
2022/08/22 11:09:06;;;;;;;3.03;1.00;;;35.50;68.40;;;;;;5053404;28;20063;-78
2022/08/22 11:11:44;;;;;;;6.07;1.40;;;35.30;67.10;;;;;;5054066;28;20036;-79
2022/08/22 11:14:28;;;;;;;2.25;1.35;;;35.30;66.20;;;;;;5037350;28;20029;-79
2022/08/22 11:17:02;;;;;;;4.15;1.55;;;34.80;69.60;;;;;;5063579;28;20384;-79
2022/08/22 11:19:30;;;;;;;1.70;0.98;;;35.20;67.30;;;;;;5029586;28;20065;-78
2022/08/22 11:21:56;;;;;;;2.95;1.13;;;34.80;68.10;;;;;;5053897;28;20095;-80
2022/08/22 11:24:40;;;;;;;4.05;1.40;;;34.60;67.90;;;;;;5054476;28;20041;-81
2022/08/22 11:27:38;;;;;;;2.60;1.10;;;34.40;69.60;;;;;;5035446;28;20492;-81
2022/08/22 11:30:26;;;;;;;1.95;1.05;;;34.90;69.60;;;;;;5046172;28;20036;-81
2022/08/22 11:33:04;;;;;;;3.58;1.13;;;34.20;68.10;;;;;;5044112;28;20037;-80
2022/08/22 11:35:39;;;;;;;3.10;1.30;;;34.10;69.60;;;;;;5041159;28;20038;-80
2022/08/22 11:41:49;;;;;;;3.45;1.38;;;33.40;69.70;;;;;;5054498;28;20094;-79
2022/08/22 11:44:20;;;;;;;3.58;1.45;;;33.40;70.70;;;;;;5057395;28;20537;-80
2022/08/22 11:46:49;;;;;;;4.32;1.50;;;32.70;70.90;;;;;;5043455;28;20087;-80
2022/08/22 11:49:48;;;;;;;4.32;1.30;;;32.80;72.40;;;;;;5042606;28;20049;-80
2022/08/22 11:52:37;;;;;;;3.53;1.38;;;33.20;72.30;;;;;;5042217;28;20040;-81
2022/08/22 11:55:30;;;;;;;2.28;1.30;;;33.90;71.60;;;;;;5055260;28;20040;-78
2022/08/22 11:58:05;;;;;;;2.55;1.27;;;33.40;71.00;;;;;;5038622;28;20479;-79
2022/08/22 12:01:10;;;;;;;5.85;1.50;;;33.50;70.70;;;;;;5038923;28;20045;-80
2022/08/22 12:03:57;;;;;;;3.30;1.33;;;33.10;72.80;;;;;;5045240;28;20045;-79
2022/08/22 12:06:42;;;;;;;4.40;1.58;;;33.10;72.00;;;;;;5036950;28;20043;-79
2022/08/22 12:09:11;;;;;;;4.35;1.42;;;32.70;72.70;;;;;;5053525;28;20048;-79
2022/08/22 12:12:00;;;;;;;3.55;1.65;;;32.90;72.30;;;;;;5053197;28;20478;-81
2022/08/22 12:14:43;;;;;;;4.78;1.63;;;32.70;72.10;;;;;;5033937;28;20049;-81
2022/08/22 12:17:33;;;;;;;3.38;1.48;;;32.90;73.60;;;;;;5048987;28;20041;-81
2022/08/22 12:20:18;;;;;;;2.30;1.25;;;32.50;71.40;;;;;;5053307;28;20041;-81
2022/08/22 12:22:49;;;;;;;2.45;1.27;;;32.20;72.60;;;;;;5053386;28;20076;-81
2022/08/22 12:25:27;;;;;;;3.05;1.23;;;31.80;72.50;;;;;;5042521;28;20037;-81
2022/08/22 12:28:05;;;;;;;2.95;1.10;;;31.20;73.00;;;;;;5019560;28;20048;-81
2022/08/22 12:30:49;;;;;;;9.63;1.58;;;31.50;75.30;;;;;;5036432;28;20073;-81
2022/08/22 12:33:39;;;;;;;2.70;1.15;;;31.50;72.70;;;;;;5036652;28;20048;-81
2022/08/22 12:36:32;;;;;;;6.10;1.73;;;31.20;73.80;;;;;;5052972;28;20542;-81
2022/08/22 12:39:38;;;;;;;3.70;1.92;;;30.30;73.70;;;;;;5035270;28;20044;-81
2022/08/22 12:42:32;;;;;;;3.33;1.60;;;30.60;74.30;;;;;;5049328;28;20415;-81
2022/08/22 12:45:22;;;;;;;2.78;1.10;;;30.70;73.50;;;;;;5052905;28;20045;-82
2022/08/22 12:48:06;;;;;;;3.78;1.50;;;30.60;74.20;;;;;;5035648;28;20053;-81
2022/08/22 12:50:49;;;;;;;4.85;2.33;;;30.00;74.20;;;;;;5022992;28;20392;-81
2022/08/22 12:53:44;;;;;;;3.83;1.38;;;30.30;74.10;;;;;;5031085;28;20468;-81
2022/08/22 12:56:42;;;;;;;4.00;1.67;;;30.60;76.10;;;;;;5032496;28;20045;-81
2022/08/22 12:59:40;;;;;;;1.83;1.10;;;30.90;73.70;;;;;;5051268;28;20055;-81
2022/08/22 13:02:16;;;;;;;3.83;1.55;;;30.00;74.80;;;;;;5039498;28;20048;-80
2022/08/22 13:04:49;;;;;;;3.45;1.40;;;29.40;75.90;;;;;;5053232;28;20486;-80
2022/08/22 13:07:27;;;;;;;5.22;1.52;;;29.00;76.40;;;;;;5035358;28;20048;-80
2022/08/22 13:10:00;;;;;;;5.63;1.70;;;28.80;75.50;;;;;;5052658;28;20037;-80
2022/08/22 13:12:34;;;;;;;2.97;1.20;;;28.70;77.10;;;;;;5020398;28;20106;-80
2022/08/22 13:15:19;;;;;;;3.20;1.35;;;28.80;78.30;;;;;;5036355;28;20379;-80
2022/08/22 13:17:48;;;;;;;3.53;0.80;;;28.50;77.30;;;;;;5047414;28;20503;-80
2022/08/22 13:20:27;;;;;;;4.35;1.55;;;28.90;77.80;;;;;;5052686;28;20483;-81
2022/08/22 13:22:53;;;;;;;3.47;1.13;;;29.30;77.30;;;;;;5032701;28;20061;-81
2022/08/22 13:25:26;;;;;;;1.73;1.20;;;29.70;77.90;;;;;;5039543;28;20036;-81
2022/08/22 13:27:58;;;;;;;2.72;1.25;;;29.60;77.00;;;;;;5045923;28;20040;-81
2022/08/22 13:30:34;;;;;;;3.03;1.40;;;29.50;77.20;;;;;;5051577;28;20091;-80
2022/08/22 13:33:13;;;;;;;3.85;1.20;;;29.10;76.30;;;;;;5051838;28;20037;-80
2022/08/22 13:35:48;;;;;;;2.58;1.27;;;28.90;77.60;;;;;;5052290;28;20056;-80
2022/08/22 13:38:28;;;;;;;2.75;1.33;;;28.90;77.10;;;;;;5049091;28;20045;-80
2022/08/22 13:40:56;;;;;;;3.13;1.65;;;28.60;79.20;;;;;;5050769;28;20052;-80
2022/08/22 13:43:35;;;;;;;3.65;1.25;;;28.80;78.20;;;;;;5035166;28;20041;-80
2022/08/22 13:46:05;;;;;;;5.57;1.45;;;28.70;78.80;;;;;;5052500;28;20348;-81
2022/08/22 13:48:54;;;;;;;3.72;1.20;;;28.90;79.20;;;;;;5052215;28;20132;-81
2022/08/22 13:51:29;;;;;;;1.58;1.05;;;29.20;78.30;;;;;;5034821;28;20440;-80
2022/08/22 13:53:55;;;;;;;5.95;1.90;;;29.50;79.30;;;;;;5052409;28;20119;-80
2022/08/22 13:56:33;;;;;;;4.38;1.40;;;29.40;78.00;;;;;;5051997;28;20610;-80
2022/08/22 13:59:03;;;;;;;3.72;1.70;;;29.30;75.80;;;;;;5052546;28;20037;-80
2022/08/22 14:01:53;;;;;;;3.38;1.42;;;29.00;77.10;;;;;;5049606;28;20045;-79
2022/08/22 14:04:27;;;;;;;5.63;1.40;;;28.70;77.00;;;;;;5052313;28;20037;-80
2022/08/22 14:06:56;;;;;;;4.90;1.42;;;28.10;77.50;;;;;;5052212;28;20190;-81
2022/08/22 14:09:22;;;;;;;3.63;1.38;;;27.80;78.40;;;;;;5052459;28;20364;-82
2022/08/22 14:11:54;;;;;;;3.47;1.40;;;27.50;80.40;;;;;;5051103;28;20045;-81